createdAt,value
2023-01-18T00:10:49.755Z,530.00
2023-01-18T00:11:49.723Z,528.00
2023-01-18T00:12:49.707Z,528.00
2023-01-18T00:13:49.667Z,530.00
2023-01-18T00:14:49.648Z,528.00
2023-01-18T00:15:49.619Z,528.00
2023-01-18T00:16:49.592Z,530.00
2023-01-18T00:17:49.549Z,529.00
2023-01-18T00:18:49.514Z,528.00
2023-01-18T00:19:49.501Z,525.00
2023-01-18T00:20:49.495Z,528.00
2023-01-18T00:21:49.427Z,525.00
2023-01-18T00:22:49.400Z,527.00
2023-01-18T00:23:49.389Z,526.00
2023-01-18T00:24:49.351Z,524.00
2023-01-18T00:25:49.317Z,526.00
2023-01-18T00:26:49.300Z,527.00
2023-01-18T00:27:49.272Z,526.00
2023-01-18T00:28:49.252Z,529.00
2023-01-18T00:29:49.218Z,526.00
2023-01-18T00:30:49.206Z,528.00
2023-01-18T00:31:49.275Z,527.00
2023-01-18T00:32:49.207Z,526.00
2023-01-18T00:33:49.121Z,529.00
2023-01-18T00:34:50.538Z,525.00
2023-01-18T00:35:49.075Z,525.00
2023-01-18T00:36:49.053Z,527.00
2023-01-18T00:37:49.039Z,526.00
2023-01-18T00:38:49.001Z,524.00
2023-01-18T00:39:48.982Z,525.00
2023-01-18T00:40:48.956Z,523.00
2023-01-18T00:41:48.929Z,525.00
2023-01-18T00:42:48.902Z,527.00
2023-01-18T05:45:41.358Z,508.00
2023-01-18T05:46:41.327Z,508.00
2023-01-18T05:47:41.299Z,508.00
2023-01-18T05:48:41.297Z,508.00
2023-01-18T05:49:42.082Z,507.00
2023-01-18T05:50:41.206Z,509.00
2023-01-18T05:51:41.187Z,508.00
2023-01-18T05:52:41.152Z,507.00
2023-01-18T05:53:41.146Z,507.00
2023-01-18T05:54:41.110Z,508.00
2023-01-18T05:55:41.084Z,507.00
2023-01-18T05:56:41.085Z,507.00
2023-01-18T05:57:41.045Z,506.00
2023-01-18T05:58:41.023Z,505.00
2023-01-18T05:59:41.019Z,505.00
2023-01-18T06:00:40.988Z,504.00
2023-01-18T06:01:41.002Z,507.00
2023-01-18T06:02:40.977Z,505.00
2023-01-18T06:03:40.918Z,507.00
2023-01-18T06:04:40.929Z,506.00
2023-01-18T06:05:40.890Z,506.00
2023-01-18T06:06:40.851Z,509.00
2023-01-18T06:07:40.823Z,508.00
2023-01-18T06:08:40.812Z,508.00
2023-01-18T06:09:42.825Z,508.00
2023-01-18T06:10:40.757Z,509.00
2023-01-18T06:11:40.738Z,510.00
2023-01-18T06:12:40.710Z,508.00
2023-01-18T06:13:40.692Z,509.00
2023-01-18T06:14:40.688Z,508.00
2023-01-18T06:15:40.680Z,508.00
2023-01-18T06:16:40.676Z,506.00
2023-01-18T06:17:40.632Z,507.00
2023-01-18T06:18:40.623Z,508.00
2023-01-18T06:19:40.597Z,506.00
2023-01-18T06:20:40.588Z,509.00
2023-01-18T06:21:40.557Z,512.00
2023-01-18T06:22:40.532Z,509.00
2023-01-18T06:23:40.522Z,508.00
2023-01-18T06:24:40.495Z,510.00
2023-01-18T06:25:40.473Z,508.00
2023-01-18T06:26:40.555Z,511.00
2023-01-18T06:27:40.419Z,509.00
2023-01-18T06:28:40.409Z,509.00
2023-01-18T06:29:40.373Z,513.00
2023-01-18T06:30:40.364Z,510.00
2023-01-18T06:31:40.369Z,511.00
2023-01-18T06:32:40.344Z,517.00
2023-01-18T06:33:40.333Z,518.00
2023-01-18T06:34:40.300Z,522.00
2023-01-18T06:35:40.267Z,524.00
2023-01-18T06:36:40.287Z,540.00
2023-01-18T06:37:40.240Z,536.00
2023-01-18T06:38:40.203Z,539.00
2023-01-18T06:39:40.185Z,549.00
2023-01-18T06:40:40.144Z,545.00
2023-01-18T06:41:40.156Z,546.00
2023-01-18T06:42:40.093Z,550.00
2023-01-18T06:43:40.121Z,557.00
2023-01-18T06:44:40.056Z,561.00
2023-01-18T06:45:40.022Z,559.00
2023-01-18T06:46:39.982Z,555.00
2023-01-18T06:47:39.952Z,560.00
2023-01-18T06:48:39.958Z,560.00
2023-01-18T06:49:39.927Z,569.00
2023-01-18T06:50:39.914Z,578.00
2023-01-18T06:51:39.883Z,582.00
2023-01-18T06:52:39.865Z,596.00
2023-01-18T06:53:39.860Z,618.00
2023-01-18T06:54:39.853Z,623.00
2023-01-18T06:55:39.804Z,643.00
2023-01-18T06:56:39.860Z,655.00
2023-01-18T06:57:39.772Z,679.00
2023-01-18T06:58:39.764Z,707.00
2023-01-18T06:59:39.739Z,746.00
2023-01-18T07:00:39.711Z,773.00
2023-01-18T07:01:39.782Z,820.00
2023-01-18T07:02:39.649Z,833.00
2023-01-18T07:03:39.672Z,868.00
2023-01-18T07:04:39.607Z,892.00
2023-01-18T07:05:39.601Z,901.00
2023-01-18T07:06:39.537Z,949.00
2023-01-18T07:07:39.504Z,978.00
2023-01-18T07:09:39.467Z,1016.00
2023-01-18T07:10:39.414Z,1040.00
2023-01-18T07:11:39.384Z,1072.00
2023-01-18T07:12:39.341Z,1086.00
2023-01-18T07:13:39.324Z,1116.00
2023-01-18T07:14:39.309Z,1127.00
2023-01-18T07:16:39.257Z,1178.00
2023-01-18T07:17:39.177Z,1201.00
2023-01-18T07:18:39.142Z,1215.00
2023-01-18T07:19:39.120Z,1231.00
2023-01-18T07:20:39.079Z,1261.00
2023-01-18T07:21:39.055Z,1263.00
2023-01-18T07:22:39.025Z,1269.00
2023-01-18T07:23:38.982Z,1285.00
2023-01-18T07:24:38.963Z,1315.00
2023-01-18T07:25:38.924Z,1357.00
2023-01-18T07:26:38.896Z,1386.00
2023-01-18T10:31:32.709Z,1007.00
2023-01-18T10:32:32.657Z,1015.00
2023-01-18T10:33:32.624Z,1005.00
2023-01-18T10:34:32.592Z,1008.00
2023-01-18T10:35:32.541Z,1008.00
2023-01-18T10:36:32.503Z,992.00
2023-01-18T10:37:32.460Z,998.00
2023-01-18T10:38:33.408Z,990.00
2023-01-18T10:40:32.359Z,967.00
2023-01-18T10:42:32.314Z,990.00
2023-01-18T10:43:32.282Z,971.00
2023-01-18T10:44:32.225Z,953.00
2023-01-18T10:45:32.243Z,932.00
2023-01-18T10:46:32.247Z,954.00
2023-01-18T10:47:32.130Z,908.00
2023-01-18T10:48:32.154Z,883.00
2023-01-18T10:49:32.044Z,912.00
2023-01-18T10:50:32.035Z,937.00
2023-01-18T10:51:31.979Z,931.00
2023-01-18T10:52:31.943Z,941.00
2023-01-18T10:53:31.932Z,950.00
2023-01-18T10:54:31.872Z,949.00
2023-01-18T10:55:31.837Z,966.00
2023-01-18T10:56:31.802Z,975.00
2023-01-18T10:57:31.783Z,943.00
2023-01-18T10:58:31.735Z,939.00
2023-01-18T10:59:31.713Z,969.00
2023-01-18T11:00:31.680Z,994.00
2023-01-18T11:01:31.810Z,1010.00
2023-01-18T11:02:31.659Z,1045.00
2023-01-18T11:03:31.627Z,1060.00
2023-01-18T11:04:31.556Z,1055.00
2023-01-18T11:05:31.517Z,1074.00
2023-01-18T11:06:31.459Z,1070.00
2023-01-18T11:07:31.428Z,1131.00
2023-01-18T11:08:31.403Z,1164.00
2023-01-18T11:09:31.353Z,1160.00
2023-01-18T11:10:31.323Z,1140.00
2023-01-18T11:11:31.295Z,1166.00
2023-01-18T11:12:31.260Z,1198.00
2023-01-18T11:13:31.247Z,1197.00
2023-01-18T11:14:31.241Z,1210.00
2023-01-18T11:15:31.253Z,1190.00
2023-01-18T11:16:31.218Z,1191.00
2023-01-18T11:17:31.124Z,1216.00
2023-01-18T11:18:31.094Z,1216.00
2023-01-18T11:19:31.058Z,1201.00
2023-01-18T11:20:31.020Z,1201.00
2023-01-18T11:21:30.993Z,1199.00
2023-01-18T11:22:30.956Z,1184.00
2023-01-18T11:23:30.920Z,1183.00
2023-01-18T11:24:30.924Z,1168.00
2023-01-18T11:25:30.872Z,1177.00
2023-01-18T11:26:30.842Z,1174.00
2023-01-18T11:27:30.809Z,1157.00
2023-01-18T11:28:30.832Z,1160.00
2023-01-18T11:29:30.752Z,1178.00
2023-01-18T11:30:30.713Z,1154.00
2023-01-18T11:31:30.859Z,1162.00
2023-01-18T11:32:30.631Z,1199.00
2023-01-18T11:33:30.600Z,1268.00
2023-01-18T11:34:30.550Z,1254.00
2023-01-18T11:35:30.552Z,1245.00
2023-01-18T11:36:30.477Z,1244.00
2023-01-18T11:37:30.440Z,1226.00
2023-01-18T11:38:30.416Z,1224.00
2023-01-18T11:39:30.389Z,1212.00
2023-01-18T11:40:30.335Z,1187.00
2023-01-18T11:41:30.288Z,1170.00
2023-01-18T11:42:30.260Z,1160.00
2023-01-18T11:43:30.222Z,1145.00
2023-01-18T11:44:30.179Z,1097.00
2023-01-18T11:45:30.225Z,1088.00
2023-01-18T11:46:30.129Z,1083.00
2023-01-18T11:47:30.088Z,1062.00
2023-01-18T11:48:30.087Z,1030.00
2023-01-18T11:49:30.040Z,1025.00
2023-01-18T11:50:30.041Z,1011.00
2023-01-18T11:51:29.983Z,981.00
2023-01-18T11:52:29.948Z,951.00
2023-01-18T11:53:29.925Z,905.00
2023-01-18T11:54:29.909Z,896.00
2023-01-18T11:55:29.864Z,909.00
2023-01-18T11:56:29.834Z,872.00
2023-01-18T11:57:29.813Z,862.00
2023-01-18T11:58:29.788Z,848.00
2023-01-18T11:59:29.773Z,823.00
2023-01-18T12:00:29.776Z,804.00
2023-01-18T12:01:29.703Z,781.00
2023-01-18T12:02:29.753Z,781.00
2023-01-18T12:03:29.708Z,748.00
2023-01-18T12:04:29.623Z,740.00
2023-01-18T12:05:29.597Z,730.00
2023-01-18T12:06:29.574Z,711.00
2023-01-18T12:07:29.529Z,694.00
2023-01-18T12:08:29.516Z,687.00
2023-01-18T12:09:29.460Z,668.00
2023-01-18T12:10:29.425Z,659.00
2023-01-18T12:11:29.397Z,649.00
2023-01-18T12:12:29.363Z,644.00
2023-01-18T12:13:29.357Z,644.00
2023-01-18T12:14:29.303Z,619.00
2023-01-18T12:15:29.267Z,618.00
2023-01-18T12:16:29.266Z,627.00
2023-01-18T12:17:29.203Z,634.00
2023-01-18T12:18:29.167Z,652.00
2023-01-18T12:19:29.135Z,663.00
2023-01-18T12:20:29.104Z,743.00
2023-01-18T12:21:29.074Z,746.00
2023-01-18T12:22:29.036Z,753.00
2023-01-18T12:23:29.006Z,763.00
2023-01-18T12:24:28.971Z,767.00
2023-01-18T12:25:29.023Z,784.00
2023-01-18T12:26:28.988Z,745.00
2023-01-18T12:27:28.905Z,746.00
2023-01-18T12:34:28.871Z,680.00
2023-01-18T14:09:25.909Z,592.00
2023-01-18T14:10:25.872Z,593.00
2023-01-18T14:11:25.840Z,592.00
2023-01-18T14:12:25.815Z,596.00
2023-01-18T14:13:25.762Z,598.00
2023-01-18T14:14:25.735Z,599.00
2023-01-18T14:15:25.697Z,599.00
2023-01-18T14:16:25.723Z,593.00
2023-01-18T14:17:25.733Z,598.00
2023-01-18T14:18:25.598Z,593.00
2023-01-18T14:19:25.576Z,596.00
2023-01-18T14:20:25.545Z,599.00
2023-01-18T14:21:25.500Z,595.00
2023-01-18T14:22:25.469Z,593.00
2023-01-18T14:23:25.435Z,591.00
2023-01-18T14:24:25.404Z,592.00
2023-01-18T14:25:25.457Z,592.00
2023-01-18T14:26:25.319Z,593.00
2023-01-18T14:27:25.300Z,594.00
2023-01-18T14:28:25.264Z,597.00
2023-01-18T14:29:25.225Z,597.00
2023-01-18T14:30:25.189Z,596.00
2023-01-18T14:31:25.204Z,597.00
2023-01-18T14:32:25.120Z,592.00
2023-01-18T14:33:25.083Z,595.00
2023-01-18T14:34:25.070Z,594.00
2023-01-18T14:35:25.949Z,599.00
2023-01-18T14:36:25.001Z,594.00
2023-01-18T14:37:24.962Z,596.00
2023-01-18T14:38:24.942Z,597.00
2023-01-18T14:39:24.919Z,604.00
2023-01-18T14:40:24.863Z,592.00
2023-01-18T14:41:24.825Z,597.00
2023-01-18T14:42:24.817Z,598.00
2023-01-18T14:43:24.772Z,604.00
2023-01-18T14:44:24.740Z,600.00
2023-01-18T14:45:24.723Z,601.00
2023-01-18T14:46:24.703Z,606.00
2023-01-18T14:47:24.845Z,603.00
2023-01-18T14:48:24.636Z,602.00
2023-01-18T14:49:24.605Z,600.00
2023-01-18T14:50:24.589Z,601.00
2023-01-18T14:51:24.560Z,601.00
2023-01-18T14:52:24.528Z,601.00
2023-01-18T14:53:24.498Z,598.00
2023-01-18T14:54:24.469Z,600.00
2023-01-18T14:55:24.443Z,605.00
2023-01-18T14:56:24.455Z,605.00
2023-01-18T14:57:24.398Z,605.00
2023-01-18T14:58:24.367Z,603.00
2023-01-18T14:59:24.358Z,600.00
2023-01-18T15:00:24.307Z,603.00
2023-01-18T15:01:24.414Z,607.00
2023-01-18T15:02:24.263Z,598.00
2023-01-18T15:03:24.356Z,602.00
2023-01-18T15:04:24.202Z,600.00
2023-01-18T15:05:24.152Z,604.00
2023-01-18T15:06:24.146Z,605.00
2023-01-18T15:07:24.112Z,599.00
2023-01-18T15:08:24.085Z,604.00
2023-01-18T15:09:25.949Z,604.00
2023-01-18T15:10:24.031Z,604.00
2023-01-18T15:11:24.001Z,603.00
2023-01-18T15:12:23.987Z,598.00
2023-01-18T15:13:23.952Z,600.00
2023-01-18T15:14:23.905Z,605.00
2023-01-18T15:15:23.873Z,604.00
2023-01-18T15:16:23.882Z,605.00
2023-01-18T15:17:23.824Z,603.00
2023-01-18T15:18:23.795Z,599.00
2023-01-18T15:19:23.746Z,598.00
2023-01-18T15:20:23.694Z,596.00
2023-01-18T15:21:23.655Z,597.00
2023-01-18T15:22:23.635Z,602.00
2023-01-18T15:23:23.614Z,601.00
2023-01-18T15:24:23.559Z,604.00
2023-01-18T15:25:23.521Z,599.00
2023-01-18T15:26:23.488Z,603.00
2023-01-18T15:27:23.458Z,605.00
2023-01-18T15:28:24.422Z,599.00
2023-01-18T15:29:25.945Z,596.00
2023-01-18T15:30:23.360Z,608.00
2023-01-18T15:31:23.353Z,601.00
2023-01-18T15:32:23.304Z,602.00
2023-01-18T15:33:23.289Z,604.00
2023-01-18T15:34:23.253Z,604.00
2023-01-18T15:35:23.225Z,604.00
2023-01-18T15:36:23.197Z,606.00
2023-01-18T15:37:23.153Z,598.00
2023-01-18T15:38:23.134Z,603.00
2023-01-18T15:39:23.096Z,601.00
2023-01-18T15:40:23.063Z,600.00
2023-01-18T15:41:23.028Z,599.00
2023-01-18T15:42:23.001Z,605.00
2023-01-18T15:43:22.973Z,606.00
2023-01-18T15:44:22.953Z,598.00
2023-01-18T15:45:22.940Z,608.00
2023-01-18T15:46:22.930Z,595.00
2023-01-18T15:47:22.879Z,596.00
2023-01-18T15:48:23.284Z,598.00
2023-01-18T15:49:22.815Z,599.00
2023-01-18T15:50:22.818Z,600.00
2023-01-18T15:51:23.066Z,599.00
2023-01-18T15:52:22.755Z,598.00
2023-01-18T15:53:22.745Z,601.00
2023-01-18T15:54:22.711Z,604.00
2023-01-18T15:55:22.680Z,592.00
2023-01-18T15:56:22.651Z,598.00
2023-01-18T15:57:22.614Z,591.00
2023-01-18T15:58:22.590Z,596.00
2023-01-18T15:59:22.561Z,596.00
2023-01-18T16:00:22.535Z,598.00
2023-01-18T16:01:22.559Z,597.00
2023-01-18T16:02:22.474Z,598.00
2023-01-18T16:03:22.460Z,596.00
2023-01-18T16:04:22.422Z,597.00
2023-01-18T16:05:22.403Z,598.00
2023-01-18T16:06:22.377Z,597.00
2023-01-18T16:07:22.349Z,596.00
2023-01-18T16:08:22.951Z,598.00
2023-01-18T16:09:22.310Z,591.00
2023-01-18T16:10:22.252Z,590.00
2023-01-18T16:11:22.215Z,595.00
2023-01-18T16:12:22.184Z,595.00
2023-01-18T16:13:22.158Z,603.00
2023-01-18T16:14:22.128Z,596.00
2023-01-18T16:15:22.094Z,593.00
2023-01-18T16:16:22.144Z,589.00
2023-01-18T16:17:22.028Z,590.00
2023-01-18T16:18:21.986Z,587.00
2023-01-18T16:19:21.945Z,591.00
2023-01-18T16:20:22.032Z,595.00
2023-01-18T16:21:21.869Z,594.00
2023-01-18T16:22:21.841Z,591.00
2023-01-18T16:23:23.171Z,591.00
2023-01-18T16:24:21.774Z,593.00
2023-01-18T16:25:21.744Z,598.00
2023-01-18T16:26:21.701Z,596.00
2023-01-18T16:27:21.672Z,591.00
2023-01-18T16:28:21.645Z,592.00
2023-01-18T16:29:21.625Z,594.00
2023-01-18T16:30:21.595Z,590.00
2023-01-18T16:31:22.923Z,585.00
2023-01-18T16:32:21.544Z,594.00
2023-01-18T16:33:21.525Z,590.00
2023-01-18T16:34:21.519Z,590.00
2023-01-18T16:35:21.461Z,585.00
2023-01-18T16:36:22.226Z,591.00
2023-01-18T16:37:21.387Z,591.00
2023-01-18T16:38:21.357Z,586.00
2023-01-18T16:39:21.333Z,593.00
2023-01-18T16:40:21.435Z,588.00
2023-01-18T16:41:21.275Z,588.00
2023-01-18T16:42:26.599Z,590.00
2023-01-18T16:43:22.228Z,591.00
2023-01-18T16:44:21.188Z,591.00
2023-01-18T16:45:21.161Z,587.00
2023-01-18T16:46:21.137Z,592.00
2023-01-18T16:47:21.098Z,589.00
2023-01-18T16:48:21.084Z,586.00
2023-01-18T16:49:21.044Z,586.00
2023-01-18T16:50:21.054Z,589.00
2023-01-18T16:51:20.976Z,587.00
2023-01-18T16:52:20.944Z,588.00
2023-01-18T16:53:20.932Z,587.00
2023-01-18T16:54:20.879Z,583.00
2023-01-18T16:55:20.859Z,587.00
2023-01-18T16:56:20.829Z,586.00
2023-01-18T16:57:20.805Z,586.00
2023-01-18T16:58:20.773Z,590.00
2023-01-18T16:59:20.764Z,584.00
2023-01-18T17:00:20.743Z,587.00
2023-01-18T17:01:20.804Z,581.00
2023-01-18T17:02:20.773Z,589.00
2023-01-18T17:03:20.648Z,578.00
2023-01-18T17:04:20.611Z,577.00
2023-01-18T17:05:20.557Z,581.00
2023-01-18T17:06:20.517Z,583.00
2023-01-18T17:07:20.475Z,582.00
2023-01-18T17:08:20.451Z,578.00
2023-01-18T17:09:20.415Z,583.00
2023-01-18T17:10:20.394Z,585.00
2023-01-18T17:11:20.370Z,586.00
2023-01-18T17:12:20.345Z,580.00
2023-01-18T17:13:20.322Z,581.00
2023-01-18T17:14:20.305Z,584.00
2023-01-18T17:15:20.333Z,581.00
2023-01-18T17:16:20.276Z,576.00
2023-01-18T17:17:20.216Z,577.00
2023-01-18T17:18:20.179Z,577.00
2023-01-18T17:19:20.146Z,577.00
2023-01-18T17:20:20.121Z,577.00
2023-01-18T17:21:20.090Z,582.00
2023-01-18T17:22:20.058Z,577.00
2023-01-18T17:23:20.042Z,575.00
2023-01-18T17:24:20.008Z,577.00
2023-01-18T17:25:19.979Z,579.00
2023-01-18T17:26:19.950Z,579.00
2023-01-18T17:27:19.920Z,574.00
2023-01-18T17:28:19.887Z,574.00
2023-01-18T17:29:19.861Z,579.00
2023-01-18T17:30:19.837Z,579.00
2023-01-18T17:31:19.835Z,577.00
2023-01-18T17:32:19.760Z,576.00
2023-01-18T17:33:19.729Z,574.00
2023-01-18T17:34:23.303Z,573.00
2023-01-18T17:35:20.685Z,579.00
2023-01-18T17:36:19.653Z,579.00
2023-01-18T17:37:19.619Z,576.00
2023-01-18T17:38:25.017Z,571.00
2023-01-18T17:39:20.541Z,579.00
2023-01-18T17:40:27.349Z,571.00
2023-01-18T17:41:26.757Z,579.00
2023-01-18T17:42:29.787Z,579.00
2023-01-18T17:43:33.293Z,579.00
2023-01-18T17:44:24.212Z,580.00
2023-01-18T17:45:20.396Z,580.00
2023-01-18T17:46:19.370Z,582.00
2023-01-18T17:47:19.303Z,581.00
2023-01-18T17:48:19.280Z,582.00
2023-01-18T17:49:19.242Z,578.00
2023-01-18T17:50:19.243Z,572.00
2023-01-18T17:51:19.197Z,573.00
2023-01-18T17:52:19.162Z,569.00
2023-01-18T17:53:19.137Z,569.00
2023-01-18T17:54:20.951Z,565.00
2023-01-18T17:55:24.343Z,569.00
2023-01-18T17:56:20.045Z,569.00
2023-01-18T17:57:19.026Z,569.00
2023-01-18T17:58:18.981Z,567.00
2023-01-18T17:59:18.958Z,568.00
2023-01-18T18:00:18.921Z,562.00
2023-01-18T20:37:14.062Z,519.00
2023-01-18T20:38:14.036Z,517.00
2023-01-18T20:39:14.007Z,514.00
2023-01-18T20:40:13.972Z,519.00
2023-01-18T20:41:13.949Z,514.00
2023-01-18T20:42:13.920Z,508.00
2023-01-18T20:43:13.880Z,509.00
2023-01-18T20:44:13.858Z,512.00
2023-01-18T20:45:13.816Z,514.00
2023-01-18T20:46:13.849Z,513.00
2023-01-18T20:47:13.766Z,509.00
2023-01-18T20:48:13.731Z,514.00
2023-01-18T20:49:13.705Z,510.00
2023-01-18T20:50:13.706Z,511.00
2023-01-18T20:51:13.658Z,505.00
2023-01-18T20:52:13.645Z,511.00
2023-01-18T20:53:13.621Z,509.00
2023-01-18T20:54:13.599Z,512.00
2023-01-18T20:55:13.579Z,514.00
2023-01-18T20:56:27.818Z,514.00
2023-01-18T20:57:14.494Z,514.00
2023-01-18T20:58:13.506Z,515.00
2023-01-18T20:59:13.456Z,514.00
2023-01-18T21:00:13.441Z,512.00
2023-01-18T21:01:13.481Z,511.00
2023-01-18T21:02:13.474Z,509.00
2023-01-18T21:03:13.333Z,510.00
2023-01-18T21:04:13.313Z,510.00
2023-01-18T21:05:13.295Z,512.00
2023-01-18T21:06:13.275Z,508.00
2023-01-18T21:07:13.222Z,508.00
2023-01-18T21:08:13.199Z,508.00
2023-01-18T21:09:13.155Z,507.00
2023-01-18T21:10:13.140Z,509.00
2023-01-18T21:11:13.130Z,504.00
2023-01-18T21:12:13.083Z,504.00
2023-01-18T21:13:13.050Z,506.00
2023-01-18T21:14:13.012Z,504.00
2023-01-18T21:15:12.994Z,504.00
2023-01-18T21:16:13.036Z,505.00
2023-01-18T21:17:12.913Z,506.00
2023-01-18T21:18:12.879Z,506.00
2023-01-18T21:19:12.856Z,506.00
2023-01-18T21:20:12.834Z,505.00
2023-01-18T21:21:12.795Z,505.00
2023-01-18T21:22:12.757Z,504.00
2023-01-18T21:23:12.743Z,504.00
2023-01-18T21:24:12.707Z,502.00
2023-01-18T21:25:12.686Z,505.00
2023-01-18T21:26:12.652Z,506.00
2023-01-18T21:27:12.626Z,501.00
2023-01-18T21:28:12.591Z,509.00
2023-01-18T21:29:12.574Z,506.00
2023-01-18T21:30:12.534Z,506.00
2023-01-18T21:32:12.474Z,511.00
2023-01-18T21:33:12.440Z,508.00
2023-01-18T21:34:12.412Z,511.00
2023-01-18T21:35:12.375Z,511.00
2023-01-18T21:36:12.369Z,506.00
2023-01-18T21:37:12.322Z,507.00
2023-01-18T21:38:12.287Z,507.00
2023-01-18T21:39:12.312Z,503.00
2023-01-18T21:40:12.246Z,506.00
2023-01-18T21:41:12.192Z,504.00
2023-01-18T21:42:12.162Z,507.00
2023-01-18T21:43:12.146Z,503.00
2023-01-18T21:44:12.771Z,503.00
2023-01-18T21:45:12.070Z,508.00
2023-01-18T21:46:12.037Z,508.00
2023-01-18T21:47:11.992Z,503.00
2023-01-18T21:48:12.957Z,504.00
2023-01-18T21:49:13.188Z,504.00
2023-01-18T21:50:17.478Z,504.00
2023-01-18T21:51:12.863Z,504.00
2023-01-18T21:52:11.836Z,505.00
2023-01-18T21:53:11.813Z,506.00
2023-01-18T21:54:11.784Z,508.00
2023-01-18T21:55:11.748Z,506.00
2023-01-18T21:56:11.720Z,504.00
2023-01-18T21:57:11.694Z,502.00
2023-01-18T21:58:11.653Z,505.00
2023-01-18T21:59:11.628Z,500.00
2023-01-18T22:00:11.615Z,511.00
2023-01-18T22:01:11.683Z,507.00
2023-01-18T22:02:11.622Z,508.00
2023-01-18T22:03:11.507Z,504.00
2023-01-18T22:04:11.488Z,507.00
2023-01-18T22:05:11.460Z,503.00
2023-01-18T22:06:11.423Z,507.00
2023-01-18T22:07:11.396Z,505.00
2023-01-18T22:08:11.372Z,506.00
2023-01-18T22:09:11.348Z,510.00
2023-01-18T22:10:11.395Z,504.00
2023-01-18T22:11:11.285Z,510.00
2023-01-18T22:12:11.252Z,502.00
2023-01-18T22:13:11.217Z,504.00
2023-01-18T22:14:11.186Z,506.00
2023-01-18T22:15:11.141Z,504.00
2023-01-18T22:16:11.106Z,507.00
2023-01-18T22:17:11.070Z,510.00
2023-01-18T22:18:11.044Z,503.00
2023-01-18T22:19:11.032Z,503.00
2023-01-18T22:20:10.986Z,503.00
2023-01-18T22:21:10.976Z,509.00
2023-01-18T22:22:10.947Z,506.00
2023-01-18T22:23:10.917Z,505.00
2023-01-18T22:24:10.891Z,505.00
2023-01-18T22:25:10.881Z,506.00
2023-01-18T22:26:10.860Z,507.00
2023-01-18T22:27:10.823Z,507.00
2023-01-18T22:28:10.825Z,507.00
2023-01-18T22:29:10.782Z,509.00
2023-01-18T22:30:10.765Z,505.00
2023-01-18T22:31:10.803Z,501.00
2023-01-18T22:32:10.714Z,508.00
2023-01-18T22:33:10.675Z,508.00
2023-01-18T22:34:10.640Z,504.00
2023-01-18T22:35:10.620Z,505.00
2023-01-18T22:36:10.590Z,506.00
2023-01-18T22:37:10.556Z,508.00
2023-01-18T22:38:10.538Z,508.00
2023-01-18T22:39:12.059Z,509.00
2023-01-18T22:40:10.492Z,509.00
2023-01-18T22:41:10.469Z,507.00
2023-01-18T22:42:10.439Z,504.00
2023-01-18T22:43:10.410Z,507.00
2023-01-18T22:44:10.394Z,503.00
2023-01-18T22:45:10.382Z,505.00
2023-01-18T22:46:10.370Z,507.00
2023-01-18T22:47:10.334Z,506.00
2023-01-18T22:48:10.315Z,503.00
2023-01-18T22:49:10.298Z,506.00
2023-01-18T22:50:10.271Z,502.00
2023-01-18T22:51:10.252Z,503.00
2023-01-18T22:52:10.215Z,505.00
2023-01-18T22:53:10.196Z,507.00
2023-01-18T22:54:10.184Z,507.00
2023-01-18T22:55:10.153Z,508.00
2023-01-18T22:56:10.126Z,504.00
2023-01-18T22:57:10.107Z,507.00
2023-01-18T22:58:10.075Z,508.00
2023-01-18T22:59:10.049Z,511.00
2023-01-18T23:00:10.027Z,504.00
2023-01-18T23:01:10.001Z,503.00
2023-01-18T23:02:09.961Z,509.00
2023-01-18T23:03:09.973Z,507.00
2023-01-18T23:04:09.896Z,509.00
2023-01-18T23:05:09.875Z,507.00
2023-01-18T23:06:09.845Z,505.00
2023-01-18T23:07:09.841Z,505.00
2023-01-18T23:08:09.799Z,507.00
2023-01-18T23:09:09.840Z,508.00
2023-01-18T23:10:09.763Z,502.00
2023-01-18T23:11:09.735Z,509.00
2023-01-18T23:12:09.712Z,504.00
2023-01-18T23:13:09.684Z,511.00
2023-01-18T23:14:09.738Z,508.00
2023-01-18T23:15:09.621Z,507.00
2023-01-18T23:16:09.666Z,507.00
2023-01-18T23:17:09.590Z,510.00
2023-01-18T23:18:09.550Z,505.00
2023-01-18T23:19:09.508Z,504.00
2023-01-18T23:20:09.498Z,506.00
2023-01-18T23:21:09.460Z,502.00
2023-01-18T23:22:09.451Z,504.00
2023-01-18T23:23:09.415Z,501.00
2023-01-18T23:24:09.394Z,504.00
2023-01-18T23:25:09.364Z,505.00
2023-01-18T23:26:09.344Z,505.00
2023-01-18T23:27:09.324Z,506.00
2023-01-18T23:28:09.301Z,504.00
2023-01-18T23:29:09.271Z,505.00
2023-01-18T23:30:09.259Z,503.00
2023-01-18T23:31:09.245Z,501.00
2023-01-18T23:32:09.205Z,503.00
2023-01-18T23:33:09.158Z,503.00
2023-01-18T23:34:09.141Z,506.00
2023-01-18T23:35:09.116Z,500.00
2023-01-18T23:36:09.081Z,501.00
2023-01-18T23:37:09.059Z,505.00
2023-01-18T23:38:09.025Z,500.00
2023-01-18T23:39:09.009Z,511.00
2023-01-18T23:40:08.976Z,506.00
2023-01-18T23:41:08.943Z,504.00
2023-01-18T23:42:08.928Z,507.00
2023-01-18T23:43:08.904Z,505.00
